createdAt,value
2022-12-18T00:02:06.463Z,33.90
2022-12-18T00:04:53.870Z,36.33
2022-12-18T00:07:41.320Z,36.13
2022-12-18T00:10:29.153Z,41.27
2022-12-18T00:13:16.607Z,40.67
2022-12-18T00:16:08.435Z,35.63
2022-12-18T00:18:58.098Z,33.00
2022-12-18T00:21:46.201Z,31.90
2022-12-18T00:24:34.133Z,33.13
2022-12-18T00:27:21.580Z,31.00
2022-12-18T00:30:09.355Z,36.90
2022-12-18T00:32:57.710Z,35.10
2022-12-18T00:35:45.247Z,29.63
2022-12-18T00:38:33.110Z,33.13
2022-12-18T00:41:38.818Z,33.00
2022-12-18T00:44:25.851Z,40.53
2022-12-18T00:47:13.540Z,29.00
2022-12-18T00:50:01.071Z,33.63
2022-12-18T00:52:48.384Z,32.80
2022-12-18T00:55:36.262Z,33.57
2022-12-18T00:58:23.787Z,31.20
2022-12-18T01:01:10.682Z,33.80
2022-12-18T01:03:57.906Z,30.73
2022-12-18T01:06:45.004Z,30.73
2022-12-18T01:09:32.570Z,34.43
2022-12-18T01:12:19.615Z,37.50
2022-12-18T01:15:08.463Z,29.17
2022-12-18T01:17:55.495Z,35.00
2022-12-18T01:20:42.608Z,33.07
2022-12-18T01:23:30.202Z,30.37
2022-12-18T01:26:18.064Z,31.60
2022-12-18T01:29:05.976Z,30.77
2022-12-18T01:31:56.427Z,35.77
2022-12-18T01:34:44.279Z,33.63
2022-12-18T01:37:32.577Z,40.43
2022-12-18T01:40:20.513Z,29.73
2022-12-18T01:43:10.791Z,31.23
2022-12-18T01:46:01.510Z,28.13
2022-12-18T01:48:50.383Z,42.60
2022-12-18T01:51:37.672Z,33.73
2022-12-18T01:54:25.091Z,32.40
2022-12-18T01:57:13.232Z,29.07
2022-12-18T02:00:02.579Z,29.57
2022-12-18T02:02:50.730Z,24.13
2022-12-18T02:05:38.736Z,30.63
2022-12-18T02:08:39.745Z,28.33
2022-12-18T02:11:35.103Z,25.93
2022-12-18T02:14:31.512Z,27.50
2022-12-18T02:17:21.683Z,32.40
2022-12-18T02:20:18.606Z,37.10
2022-12-18T02:23:11.538Z,31.43
2022-12-18T02:26:19.656Z,30.93
2022-12-18T02:29:10.536Z,31.57
2022-12-18T02:31:59.344Z,37.13
2022-12-18T02:34:48.347Z,34.00
2022-12-18T02:37:36.870Z,43.07
2022-12-18T02:40:26.001Z,28.60
2022-12-18T02:43:17.636Z,28.23
2022-12-18T02:46:23.594Z,34.93
2022-12-18T02:49:20.269Z,36.63
2022-12-18T02:52:13.622Z,35.40
2022-12-18T02:55:07.696Z,35.87
2022-12-18T02:58:06.176Z,39.50
2022-12-18T03:01:03.207Z,32.50
2022-12-18T03:03:51.048Z,38.57
2022-12-18T03:06:47.573Z,33.73
2022-12-18T03:09:38.197Z,39.97
2022-12-18T03:12:30.858Z,38.87
2022-12-18T03:15:24.419Z,41.13
2022-12-18T03:18:18.073Z,35.33
2022-12-18T03:21:07.547Z,34.33
2022-12-18T03:23:55.411Z,40.40
2022-12-18T03:26:45.924Z,36.20
2022-12-18T03:29:40.584Z,39.37
2022-12-18T03:32:31.190Z,33.90
2022-12-18T03:35:21.941Z,33.70
2022-12-18T03:38:10.758Z,40.40
2022-12-18T03:41:03.060Z,30.77
2022-12-18T03:44:15.620Z,34.40
2022-12-18T03:47:03.077Z,38.33
2022-12-18T03:49:53.873Z,37.30
2022-12-18T03:53:00.349Z,31.40
2022-12-18T03:55:48.693Z,38.57
2022-12-18T03:58:37.781Z,42.10
2022-12-18T04:01:30.587Z,36.50
2022-12-18T04:04:20.472Z,33.33
2022-12-18T04:07:08.934Z,39.47
2022-12-18T04:09:58.301Z,38.77
2022-12-18T04:12:46.252Z,37.47
2022-12-18T04:15:36.240Z,39.40
2022-12-18T04:18:24.158Z,34.97
2022-12-18T04:21:12.010Z,33.90
2022-12-18T04:23:59.953Z,33.97
2022-12-18T04:26:47.500Z,35.43
2022-12-18T04:29:35.432Z,32.00
2022-12-18T04:32:22.705Z,37.60
2022-12-18T04:35:12.036Z,42.60
2022-12-18T04:37:59.460Z,37.93
2022-12-18T04:40:47.409Z,33.33
2022-12-18T04:43:34.933Z,37.73
2022-12-18T04:46:22.925Z,34.07
2022-12-18T04:49:11.434Z,33.50
2022-12-18T04:51:59.242Z,34.60
2022-12-18T04:54:46.691Z,33.20
2022-12-18T04:57:34.641Z,44.07
2022-12-18T05:00:21.924Z,30.83
2022-12-18T05:03:09.945Z,39.27
2022-12-18T05:05:57.369Z,39.27
2022-12-18T05:08:44.953Z,34.83
2022-12-18T05:11:33.654Z,33.73
2022-12-18T05:14:21.742Z,35.80
2022-12-18T05:17:08.977Z,35.80
2022-12-18T05:19:56.885Z,34.77
2022-12-18T05:22:44.814Z,38.23
2022-12-18T05:25:32.246Z,40.57
2022-12-18T05:28:20.251Z,38.90
2022-12-18T05:31:07.881Z,36.53
2022-12-18T05:33:55.699Z,37.00
2022-12-18T05:36:43.767Z,34.23
2022-12-18T05:39:32.580Z,35.03
2022-12-18T05:42:20.396Z,37.73
2022-12-18T05:45:08.599Z,38.60
2022-12-18T05:47:56.028Z,34.50
2022-12-18T05:50:46.903Z,32.50
2022-12-18T05:53:34.936Z,31.27
2022-12-18T05:56:23.843Z,36.20
2022-12-18T05:59:11.255Z,27.83
2022-12-18T06:01:59.295Z,35.83
2022-12-18T06:04:47.142Z,35.67
2022-12-18T06:07:34.443Z,34.53
2022-12-18T06:10:21.889Z,29.33
2022-12-18T06:13:09.704Z,40.23
2022-12-18T06:15:57.157Z,32.27
2022-12-18T06:18:45.100Z,29.50
2022-12-18T06:21:33.946Z,28.47
2022-12-18T06:24:22.414Z,35.60
2022-12-18T06:27:10.370Z,31.73
2022-12-18T06:29:58.290Z,34.57
2022-12-18T06:32:45.741Z,34.57
2022-12-18T06:35:36.338Z,29.37
2022-12-18T06:38:24.265Z,29.67
2022-12-18T06:41:12.859Z,34.73
2022-12-18T06:44:00.817Z,29.60
2022-12-18T06:46:48.379Z,30.70
2022-12-18T06:49:36.347Z,27.13
2022-12-18T06:52:23.769Z,30.20
2022-12-18T06:55:12.399Z,31.20
2022-12-18T06:58:00.037Z,31.90
2022-12-18T07:00:48.035Z,27.13
2022-12-18T07:03:35.642Z,30.40
2022-12-18T07:06:24.759Z,36.40
2022-12-18T07:09:12.209Z,37.10
2022-12-18T07:12:00.130Z,30.30
2022-12-18T07:14:47.571Z,27.00
2022-12-18T07:17:35.525Z,30.57
2022-12-18T07:20:22.932Z,38.53
2022-12-18T07:23:10.867Z,29.37
2022-12-18T07:26:01.807Z,31.43
2022-12-18T07:28:50.164Z,30.33
2022-12-18T07:31:38.153Z,31.03
2022-12-18T07:34:26.028Z,32.13
2022-12-18T07:37:13.991Z,28.90
2022-12-18T07:40:02.664Z,27.17
2022-12-18T07:42:50.620Z,35.63
2022-12-18T07:45:38.622Z,30.80
2022-12-18T07:48:26.552Z,30.47
2022-12-18T07:51:14.420Z,32.53
2022-12-18T07:54:03.099Z,25.77
2022-12-18T07:56:50.653Z,26.37
2022-12-18T07:59:38.287Z,31.30
2022-12-18T08:02:25.835Z,33.47
2022-12-18T08:05:14.420Z,37.63
2022-12-18T08:08:02.334Z,33.97
2022-12-18T08:10:50.049Z,31.13
2022-12-18T08:13:38.279Z,28.17
2022-12-18T08:16:26.074Z,34.50
2022-12-18T08:19:13.582Z,38.40
2022-12-18T08:22:01.044Z,32.10
2022-12-18T08:24:48.487Z,33.63
2022-12-18T08:27:36.027Z,31.57
2022-12-18T08:30:23.943Z,37.00
2022-12-18T08:33:11.434Z,29.00
2022-12-18T08:36:00.033Z,27.63
2022-12-18T08:38:47.922Z,29.10
2022-12-18T08:41:35.856Z,29.50
2022-12-18T08:44:38.823Z,33.53
2022-12-18T08:47:26.963Z,26.50
2022-12-18T08:50:15.029Z,26.70
2022-12-18T08:53:02.770Z,28.53
2022-12-18T08:55:50.655Z,32.40
2022-12-18T08:58:38.571Z,29.63
2022-12-18T09:01:26.197Z,24.43
2022-12-18T09:04:15.401Z,26.03
2022-12-18T09:07:03.493Z,22.23
2022-12-18T09:09:50.979Z,27.07
2022-12-18T09:12:38.431Z,28.23
2022-12-18T09:15:26.478Z,27.07
2022-12-18T09:18:15.088Z,28.23
2022-12-18T09:21:09.508Z,30.53
2022-12-18T09:23:57.371Z,22.83
2022-12-18T09:26:47.407Z,26.07
2022-12-18T09:29:35.193Z,28.83
2022-12-18T09:32:23.201Z,26.53
2022-12-18T09:35:10.750Z,22.93
2022-12-18T09:37:58.686Z,29.47
2022-12-18T09:40:48.378Z,29.97
2022-12-18T09:43:39.539Z,26.90
2022-12-18T09:46:30.136Z,23.77
2022-12-18T09:49:19.013Z,30.77
2022-12-18T09:52:10.606Z,31.27
2022-12-18T09:55:02.973Z,28.63
2022-12-18T09:57:53.121Z,21.30
2022-12-18T10:00:41.053Z,24.27
2022-12-18T10:03:28.532Z,26.00
2022-12-18T10:06:20.785Z,24.87
2022-12-18T10:09:11.746Z,22.00
2022-12-18T10:12:07.239Z,27.17
2022-12-18T10:15:06.370Z,26.73
2022-12-18T10:17:57.884Z,28.43
2022-12-18T10:20:54.115Z,27.47
2022-12-18T10:23:48.662Z,23.67
2022-12-18T10:26:36.190Z,23.03
2022-12-18T10:29:24.754Z,20.87
2022-12-18T10:32:19.526Z,23.17
2022-12-18T10:35:11.661Z,28.73
2022-12-18T10:38:22.593Z,24.87
2022-12-18T10:41:24.824Z,25.47
2022-12-18T10:44:13.947Z,26.73
2022-12-18T10:47:11.688Z,24.73
2022-12-18T10:50:00.327Z,26.37
2022-12-18T10:52:54.924Z,28.03
2022-12-18T10:55:46.074Z,26.23
2022-12-18T10:58:37.523Z,25.17
2022-12-18T11:01:25.124Z,23.03
2022-12-18T11:04:18.013Z,24.37
2022-12-18T11:07:12.088Z,24.70
2022-12-18T11:10:02.810Z,24.20
2022-12-18T11:12:50.421Z,23.70
2022-12-18T11:15:38.612Z,20.87
2022-12-18T11:18:29.606Z,25.83
2022-12-18T11:21:17.883Z,30.57
2022-12-18T11:24:06.067Z,23.63
2022-12-18T11:26:59.495Z,21.23
2022-12-18T11:29:47.704Z,23.83
2022-12-18T11:32:40.796Z,24.53
2022-12-18T11:35:28.658Z,26.23
2022-12-18T11:38:23.741Z,19.80
2022-12-18T11:41:18.819Z,25.90
2022-12-18T11:44:07.927Z,26.27
2022-12-18T11:47:03.407Z,20.57
2022-12-18T11:49:51.796Z,22.13
2022-12-18T11:52:40.711Z,22.37
2022-12-18T11:55:34.183Z,26.73
2022-12-18T11:58:35.222Z,21.53
2022-12-18T12:01:32.936Z,18.83
2022-12-18T12:04:24.092Z,25.27
2022-12-18T12:07:11.450Z,24.67
2022-12-18T12:10:07.864Z,20.00
2022-12-18T12:13:07.032Z,25.07
2022-12-18T12:16:12.890Z,21.77
2022-12-18T12:19:00.516Z,21.17
2022-12-18T12:21:51.901Z,22.20
2022-12-18T12:24:45.331Z,25.93
2022-12-18T12:27:33.217Z,26.23
2022-12-18T12:30:22.868Z,23.87
2022-12-18T12:33:16.829Z,23.37
2022-12-18T12:36:16.962Z,25.63
2022-12-18T12:39:08.563Z,19.80
2022-12-18T12:42:16.970Z,22.67
2022-12-18T12:45:06.681Z,24.77
2022-12-18T12:47:56.717Z,23.30
2022-12-18T12:50:45.923Z,21.93
2022-12-18T12:53:37.318Z,23.63
2022-12-18T12:56:27.691Z,19.30
2022-12-18T12:59:20.865Z,27.23
2022-12-18T13:02:22.857Z,27.27
2022-12-18T13:05:25.660Z,21.73
2022-12-18T13:08:25.314Z,27.67
2022-12-18T13:11:48.852Z,24.17
2022-12-18T13:14:40.704Z,24.30
2022-12-18T13:17:32.488Z,22.90
2022-12-18T13:20:20.462Z,22.00
2022-12-18T13:23:34.538Z,22.37
2022-12-18T13:26:28.792Z,25.90
2022-12-18T13:29:36.877Z,23.50
2022-12-18T13:32:27.584Z,20.87
2022-12-18T13:35:24.661Z,22.53
2022-12-18T13:38:31.921Z,24.93
2022-12-18T13:41:19.994Z,20.17
2022-12-18T13:44:26.502Z,25.70
2022-12-18T13:47:34.750Z,23.37
2022-12-18T13:50:24.587Z,18.97
2022-12-18T13:53:31.005Z,23.80
2022-12-18T13:56:20.302Z,21.20
2022-12-18T13:59:14.668Z,22.07
2022-12-18T14:02:07.315Z,20.53
2022-12-18T14:04:55.486Z,23.13
2022-12-18T14:07:44.967Z,20.57
2022-12-18T14:10:48.586Z,19.67
2022-12-18T14:13:38.997Z,25.57
2022-12-18T14:16:26.799Z,25.10
2022-12-18T14:19:18.510Z,23.10
2022-12-18T14:27:38.637Z,28.33
2022-12-18T14:30:27.068Z,24.93
2022-12-18T14:43:56.384Z,24.67
2022-12-18T14:46:48.876Z,27.63
2022-12-18T14:49:37.736Z,22.17
2022-12-18T14:52:29.885Z,25.50
2022-12-18T14:55:18.264Z,25.03
2022-12-18T14:58:05.964Z,30.77
2022-12-18T15:00:53.433Z,23.43
2022-12-18T15:03:45.635Z,25.23
2022-12-18T15:06:38.046Z,28.63
2022-12-18T15:09:27.733Z,24.37
2022-12-18T15:12:35.893Z,23.93
2022-12-18T15:15:39.144Z,25.00
2022-12-18T15:18:32.328Z,27.33
2022-12-18T15:21:21.340Z,25.63
2022-12-18T15:24:18.392Z,28.57
2022-12-18T15:27:06.127Z,30.77
2022-12-18T15:30:08.868Z,26.30
2022-12-18T15:33:16.244Z,27.30
2022-12-18T15:36:05.830Z,30.90
2022-12-18T15:38:54.682Z,28.00
2022-12-18T15:42:03.441Z,26.47
2022-12-18T15:44:49.973Z,29.00
2022-12-18T15:47:38.065Z,26.43
2022-12-18T15:50:25.872Z,26.97
2022-12-18T15:53:14.503Z,26.43
2022-12-18T15:56:20.684Z,22.80
2022-12-18T15:59:15.604Z,28.33
2022-12-18T16:02:03.879Z,28.13
2022-12-18T16:04:53.181Z,31.07
2022-12-18T16:07:40.382Z,29.70
2022-12-18T16:10:28.482Z,29.93
2022-12-18T16:13:17.701Z,25.43
2022-12-18T16:16:05.791Z,32.00
2022-12-18T16:18:53.157Z,26.63
2022-12-18T16:21:40.630Z,28.17
2022-12-18T16:24:32.881Z,24.43
2022-12-18T16:27:20.805Z,24.43
2022-12-18T16:30:08.392Z,31.03
2022-12-18T16:32:56.529Z,27.60
2022-12-18T16:35:43.830Z,31.17
2022-12-18T16:38:31.581Z,30.47
2022-12-18T16:41:33.150Z,29.37
2022-12-18T16:44:21.163Z,29.27
2022-12-18T16:47:08.406Z,32.33
2022-12-18T16:49:57.587Z,26.13
2022-12-18T16:52:44.934Z,28.63
2022-12-18T16:55:32.198Z,34.43
2022-12-18T16:58:20.100Z,29.47
2022-12-18T17:01:11.548Z,28.50
2022-12-18T17:04:06.088Z,37.83
2022-12-18T17:06:53.947Z,26.70
2022-12-18T17:09:41.806Z,28.57
2022-12-18T17:12:36.781Z,29.13
2022-12-18T17:15:24.627Z,30.07
2022-12-18T17:18:12.438Z,29.63
2022-12-18T17:21:05.015Z,30.40
2022-12-18T17:23:52.404Z,23.97
2022-12-18T17:26:40.346Z,28.40
2022-12-18T17:29:27.756Z,27.53
2022-12-18T17:32:15.516Z,29.17
2022-12-18T17:35:07.208Z,27.20
2022-12-18T17:37:55.423Z,34.83
2022-12-18T17:40:46.449Z,29.63
2022-12-18T17:43:39.509Z,30.50
2022-12-18T17:46:28.072Z,29.63
2022-12-18T17:49:16.076Z,33.83
2022-12-18T17:52:03.389Z,33.10
2022-12-18T17:54:51.309Z,33.97
2022-12-18T17:57:38.766Z,33.23
2022-12-18T18:00:26.933Z,33.63
2022-12-18T18:03:15.042Z,30.93
2022-12-18T18:06:02.875Z,27.23
2022-12-18T18:08:51.113Z,33.93
2022-12-18T18:11:57.433Z,36.93
2022-12-18T18:14:44.786Z,32.37
2022-12-18T18:17:32.440Z,34.43
2022-12-18T18:20:22.676Z,29.40
2022-12-18T18:23:10.328Z,34.77
2022-12-18T18:26:02.797Z,28.30
2022-12-18T18:28:54.702Z,34.13
2022-12-18T18:31:42.329Z,25.53
2022-12-18T18:34:31.408Z,42.07
2022-12-18T18:37:18.826Z,34.00
2022-12-18T18:40:07.732Z,33.60
2022-12-18T18:42:54.999Z,31.57
2022-12-18T18:45:42.353Z,33.47
2022-12-18T18:48:34.346Z,30.10
2022-12-18T18:51:24.386Z,36.13
2022-12-18T18:54:11.872Z,38.73
2022-12-18T18:57:20.022Z,32.27
2022-12-18T19:00:08.581Z,32.27
2022-12-18T19:03:00.461Z,32.53
2022-12-18T19:05:52.276Z,37.20
2022-12-18T19:08:40.443Z,31.83
2022-12-18T19:11:46.634Z,41.23
2022-12-18T19:14:34.630Z,40.77
2022-12-18T19:17:26.417Z,35.43
2022-12-18T19:20:17.475Z,34.80
2022-12-18T19:23:04.976Z,36.77
2022-12-18T19:26:04.082Z,37.97
2022-12-18T19:29:04.323Z,32.23
2022-12-18T19:31:52.296Z,36.10
2022-12-18T19:34:39.528Z,39.87
2022-12-18T19:37:27.010Z,33.30
2022-12-18T19:40:14.313Z,36.90
2022-12-18T19:43:02.038Z,37.70
2022-12-18T19:45:55.132Z,39.87
2022-12-18T19:48:43.747Z,37.07
2022-12-18T19:51:32.024Z,47.20
2022-12-18T19:54:19.752Z,39.17
2022-12-18T19:57:08.564Z,34.90
2022-12-18T19:59:55.976Z,45.00
2022-12-18T20:02:43.793Z,39.33
2022-12-18T20:05:31.525Z,37.40
2022-12-18T20:08:18.866Z,30.07
2022-12-18T20:11:06.720Z,44.90
2022-12-18T20:13:54.608Z,44.13
2022-12-18T20:16:42.398Z,36.53
2022-12-18T20:19:31.608Z,42.20
2022-12-18T20:22:21.724Z,44.13
2022-12-18T20:25:09.727Z,39.77
2022-12-18T20:27:57.407Z,38.27
2022-12-18T20:30:44.863Z,49.27
2022-12-18T20:33:32.481Z,42.33
2022-12-18T20:36:25.807Z,43.43
2022-12-18T20:39:18.606Z,44.47
2022-12-18T20:42:07.137Z,35.43
2022-12-18T20:44:54.418Z,45.90
2022-12-18T20:47:41.717Z,43.50
2022-12-18T20:50:29.064Z,44.63
2022-12-18T20:53:16.896Z,37.23
2022-12-18T20:56:08.120Z,39.50
2022-12-18T20:58:57.043Z,40.60
2022-12-18T21:01:48.349Z,45.40
2022-12-18T21:04:36.366Z,37.80
2022-12-18T21:07:23.695Z,41.70
2022-12-18T21:10:11.486Z,47.43
2022-12-18T21:13:04.280Z,47.50
2022-12-18T21:15:54.882Z,36.50
2022-12-18T21:18:42.266Z,51.67
2022-12-18T21:21:30.263Z,42.73
2022-12-18T21:24:22.850Z,41.83
2022-12-18T21:27:10.631Z,43.93
2022-12-18T21:30:01.540Z,47.23
2022-12-18T21:32:48.816Z,41.03
2022-12-18T21:35:37.035Z,37.10
2022-12-18T21:38:24.829Z,41.63
2022-12-18T21:41:41.745Z,42.03
2022-12-18T21:44:30.218Z,39.90
2022-12-18T21:47:23.065Z,40.80
2022-12-18T21:50:11.294Z,40.50
2022-12-18T21:52:58.990Z,39.47
2022-12-18T21:55:46.436Z,44.83
2022-12-18T21:58:34.281Z,38.10
2022-12-18T22:01:22.119Z,41.60
2022-12-18T22:04:10.040Z,50.10
2022-12-18T22:06:58.325Z,46.97
2022-12-18T22:09:46.263Z,39.23
2022-12-18T22:12:43.393Z,39.30
2022-12-18T22:15:31.251Z,44.93
2022-12-18T22:18:18.526Z,43.00
2022-12-18T22:21:06.884Z,43.00
2022-12-18T22:23:58.756Z,34.70
2022-12-18T22:26:46.579Z,43.43
2022-12-18T22:29:52.619Z,40.77
2022-12-18T22:32:40.027Z,38.40
2022-12-18T22:35:27.764Z,44.30
2022-12-18T22:38:18.057Z,43.60
2022-12-18T22:41:05.746Z,44.53
2022-12-18T22:43:53.178Z,38.40
2022-12-18T22:46:42.256Z,48.37
2022-12-18T22:49:30.120Z,40.67
2022-12-18T22:52:17.512Z,41.47
2022-12-18T22:55:07.521Z,44.63
2022-12-18T22:57:59.076Z,45.33
2022-12-18T23:00:46.749Z,36.27
2022-12-18T23:03:34.422Z,38.53
2022-12-18T23:06:23.216Z,43.13
2022-12-18T23:09:21.134Z,39.30
2022-12-18T23:12:08.993Z,39.80
2022-12-18T23:14:56.828Z,37.10
2022-12-18T23:17:44.489Z,37.47
2022-12-18T23:20:32.252Z,41.10
2022-12-18T23:23:19.760Z,40.13
2022-12-18T23:26:26.504Z,44.90
2022-12-18T23:29:13.690Z,42.47
2022-12-18T23:32:01.479Z,39.77
2022-12-18T23:34:48.849Z,36.23
2022-12-18T23:37:58.600Z,39.17
2022-12-18T23:40:44.292Z,37.20
2022-12-18T23:43:34.167Z,40.77
2022-12-18T23:46:23.683Z,33.40
2022-12-18T23:49:11.512Z,41.60
2022-12-18T23:51:58.767Z,44.40
2022-12-18T23:54:46.896Z,42.17
2022-12-18T23:57:34.360Z,32.70
